<?xml version="1.0" encoding="UTF-8" standalone="no" ?>
<gpx xmlns="http://www.topografix.com/GPX/1/1" xmlns:xsi="http://www.w3.org/2001/XMLSchema-instance" xsi:schemaLocation="http://www.topografix.com/GPX/1/1 http://www.topografix.com/GPX/1/1/gpx.xsd" version="1.1" creator="VisuGPX - https://www.visugpx.com">
  <metadata>
    <name>9712339-les gets 18km</name>
    <desc><![CDATA[trail des Gets 18 kms 
1ere édition]]></desc>
  </metadata>
  <trk>
    <name><![CDATA[9712339-les gets 18km]]></name>
    <trkseg>
      <trkpt lat="46.15868" lon="6.66963">
        <ele>1167</ele>
        <time>2019-07-25T13:55:44Z</time>
      </trkpt>
      <trkpt lat="46.15978" lon="6.671">
        <ele>1167</ele>
        <time>2019-07-25T13:57:40Z</time>
      </trkpt>
      <trkpt lat="46.16001" lon="6.672">
        <ele>1169</ele>
        <time>2019-07-25T13:58:39Z</time>
      </trkpt>
      <trkpt lat="46.16098" lon="6.67239">
        <ele>1168</ele>
        <time>2019-07-25T13:59:59Z</time>
      </trkpt>
      <trkpt lat="46.16171" lon="6.67309">
        <ele>1162</ele>
        <time>2019-07-25T14:01:10Z</time>
      </trkpt>
      <trkpt lat="46.16252" lon="6.67323">
        <ele>1157</ele>
        <time>2019-07-25T14:02:15Z</time>
      </trkpt>
      <trkpt lat="46.16442" lon="6.67484">
        <ele>1151</ele>
        <time>2019-07-25T14:05:11Z</time>
      </trkpt>
      <trkpt lat="46.16674" lon="6.67647">
        <ele>1145</ele>
        <time>2019-07-25T14:08:38Z</time>
      </trkpt>
      <trkpt lat="46.16881" lon="6.67667">
        <ele>1127</ele>
        <time>2019-07-25T14:11:24Z</time>
      </trkpt>
      <trkpt lat="46.17123" lon="6.6775">
        <ele>1126</ele>
        <time>2019-07-25T14:14:43Z</time>
      </trkpt>
      <trkpt lat="46.17286" lon="6.67806">
        <ele>1136</ele>
        <time>2019-07-25T14:16:57Z</time>
      </trkpt>
      <trkpt lat="46.17415" lon="6.67901">
        <ele>1125</ele>
        <time>2019-07-25T14:18:53Z</time>
      </trkpt>
      <trkpt lat="46.17681" lon="6.68013">
        <ele>1109</ele>
        <time>2019-07-25T14:22:35Z</time>
      </trkpt>
      <trkpt lat="46.17977" lon="6.67937">
        <ele>1106</ele>
        <time>2019-07-25T14:26:36Z</time>
      </trkpt>
      <trkpt lat="46.18286" lon="6.67829">
        <ele>1071</ele>
        <time>2019-07-25T14:30:50Z</time>
      </trkpt>
      <trkpt lat="46.18594" lon="6.67752">
        <ele>1059</ele>
        <time>2019-07-25T14:35:01Z</time>
      </trkpt>
      <trkpt lat="46.1858" lon="6.67697">
        <ele>1067</ele>
        <time>2019-07-25T14:35:33Z</time>
      </trkpt>
      <trkpt lat="46.18538" lon="6.67655">
        <ele>1075</ele>
        <time>2019-07-25T14:36:14Z</time>
      </trkpt>
      <trkpt lat="46.18476" lon="6.67633">
        <ele>1087</ele>
        <time>2019-07-25T14:37:05Z</time>
      </trkpt>
      <trkpt lat="46.18393" lon="6.67545">
        <ele>1122</ele>
        <time>2019-07-25T14:38:28Z</time>
      </trkpt>
      <trkpt lat="46.18325" lon="6.6743">
        <ele>1156</ele>
        <time>2019-07-25T14:39:51Z</time>
      </trkpt>
      <trkpt lat="46.18237" lon="6.6735">
        <ele>1197</ele>
        <time>2019-07-25T14:41:15Z</time>
      </trkpt>
      <trkpt lat="46.18201" lon="6.67391">
        <ele>1213</ele>
        <time>2019-07-25T14:41:51Z</time>
      </trkpt>
      <trkpt lat="46.18153" lon="6.67273">
        <ele>1237</ele>
        <time>2019-07-25T14:43:07Z</time>
      </trkpt>
      <trkpt lat="46.18105" lon="6.67212">
        <ele>1258</ele>
        <time>2019-07-25T14:43:58Z</time>
      </trkpt>
      <trkpt lat="46.18037" lon="6.67183">
        <ele>1282</ele>
        <time>2019-07-25T14:44:55Z</time>
      </trkpt>
      <trkpt lat="46.17968" lon="6.67105">
        <ele>1291</ele>
        <time>2019-07-25T14:46:05Z</time>
      </trkpt>
      <trkpt lat="46.17912" lon="6.67116">
        <ele>1307</ele>
        <time>2019-07-25T14:46:51Z</time>
      </trkpt>
      <trkpt lat="46.17932" lon="6.67217">
        <ele>1319</ele>
        <time>2019-07-25T14:47:49Z</time>
      </trkpt>
      <trkpt lat="46.17876" lon="6.6719">
        <ele>1322</ele>
        <time>2019-07-25T14:48:36Z</time>
      </trkpt>
      <trkpt lat="46.17844" lon="6.6724">
        <ele>1329</ele>
        <time>2019-07-25T14:49:14Z</time>
      </trkpt>
      <trkpt lat="46.17817" lon="6.67194">
        <ele>1331</ele>
        <time>2019-07-25T14:49:47Z</time>
      </trkpt>
      <trkpt lat="46.17819" lon="6.67246">
        <ele>1332</ele>
        <time>2019-07-25T14:50:16Z</time>
      </trkpt>
      <trkpt lat="46.17787" lon="6.6717">
        <ele>1339</ele>
        <time>2019-07-25T14:51:05Z</time>
      </trkpt>
      <trkpt lat="46.17754" lon="6.67144">
        <ele>1346</ele>
        <time>2019-07-25T14:51:36Z</time>
      </trkpt>
      <trkpt lat="46.17741" lon="6.67162">
        <ele>1350</ele>
        <time>2019-07-25T14:51:50Z</time>
      </trkpt>
      <trkpt lat="46.17722" lon="6.67123">
        <ele>1354</ele>
        <time>2019-07-25T14:52:16Z</time>
      </trkpt>
      <trkpt lat="46.17704" lon="6.67129">
        <ele>1360</ele>
        <time>2019-07-25T14:52:31Z</time>
      </trkpt>
      <trkpt lat="46.17701" lon="6.67075">
        <ele>1366</ele>
        <time>2019-07-25T14:53:01Z</time>
      </trkpt>
      <trkpt lat="46.17679" lon="6.67084">
        <ele>1379</ele>
        <time>2019-07-25T14:53:20Z</time>
      </trkpt>
      <trkpt lat="46.17642" lon="6.67059">
        <ele>1390</ele>
        <time>2019-07-25T14:53:52Z</time>
      </trkpt>
      <trkpt lat="46.1752" lon="6.67038">
        <ele>1412</ele>
        <time>2019-07-25T14:55:31Z</time>
      </trkpt>
      <trkpt lat="46.17249" lon="6.66855">
        <ele>1444</ele>
        <time>2019-07-25T14:59:30Z</time>
      </trkpt>
      <trkpt lat="46.171" lon="6.66705">
        <ele>1471</ele>
        <time>2019-07-25T15:01:56Z</time>
      </trkpt>
      <trkpt lat="46.16968" lon="6.66483">
        <ele>1485</ele>
        <time>2019-07-25T15:04:38Z</time>
      </trkpt>
      <trkpt lat="46.17002" lon="6.66472">
        <ele>1487</ele>
        <time>2019-07-25T15:05:06Z</time>
      </trkpt>
      <trkpt lat="46.17013" lon="6.66409">
        <ele>1481</ele>
        <time>2019-07-25T15:05:42Z</time>
      </trkpt>
      <trkpt lat="46.16889" lon="6.66003">
        <ele>1546</ele>
        <time>2019-07-25T15:09:48Z</time>
      </trkpt>
      <trkpt lat="46.1713" lon="6.65132">
        <ele>1584</ele>
        <time>2019-07-25T15:18:28Z</time>
      </trkpt>
      <trkpt lat="46.16941" lon="6.65139">
        <ele>1731</ele>
        <time>2019-07-25T15:20:59Z</time>
      </trkpt>
      <trkpt lat="46.169" lon="6.65154">
        <ele>1733</ele>
        <time>2019-07-25T15:21:33Z</time>
      </trkpt>
      <trkpt lat="46.16919" lon="6.65079">
        <ele>1746</ele>
        <time>2019-07-25T15:22:17Z</time>
      </trkpt>
      <trkpt lat="46.16892" lon="6.65042">
        <ele>1755</ele>
        <time>2019-07-25T15:22:47Z</time>
      </trkpt>
      <trkpt lat="46.16843" lon="6.64993">
        <ele>1772</ele>
        <time>2019-07-25T15:23:35Z</time>
      </trkpt>
      <trkpt lat="46.16895" lon="6.64967">
        <ele>1772</ele>
        <time>2019-07-25T15:24:19Z</time>
      </trkpt>
      <trkpt lat="46.16863" lon="6.64791">
        <ele>1805</ele>
        <time>2019-07-25T15:26:00Z</time>
      </trkpt>
      <trkpt lat="46.16752" lon="6.64585">
        <ele>1795</ele>
        <time>2019-07-25T15:28:25Z</time>
      </trkpt>
      <trkpt lat="46.16526" lon="6.64358">
        <ele>1744</ele>
        <time>2019-07-25T15:32:05Z</time>
      </trkpt>
      <trkpt lat="46.16252" lon="6.64069">
        <ele>1697</ele>
        <time>2019-07-25T15:36:37Z</time>
      </trkpt>
      <trkpt lat="46.15888" lon="6.63768">
        <ele>1626</ele>
        <time>2019-07-25T15:42:13Z</time>
      </trkpt>
      <trkpt lat="46.16116" lon="6.63819">
        <ele>1621</ele>
        <time>2019-07-25T15:45:17Z</time>
      </trkpt>
      <trkpt lat="46.16264" lon="6.63618">
        <ele>1574</ele>
        <time>2019-07-25T15:48:00Z</time>
      </trkpt>
      <trkpt lat="46.16464" lon="6.63901">
        <ele>1591</ele>
        <time>2019-07-25T15:51:44Z</time>
      </trkpt>
      <trkpt lat="46.16699" lon="6.63664">
        <ele>1580</ele>
        <time>2019-07-25T15:55:34Z</time>
      </trkpt>
      <trkpt lat="46.16694" lon="6.636">
        <ele>1564</ele>
        <time>2019-07-25T15:56:09Z</time>
      </trkpt>
      <trkpt lat="46.16635" lon="6.63541">
        <ele>1527</ele>
        <time>2019-07-25T15:57:07Z</time>
      </trkpt>
      <trkpt lat="46.16485" lon="6.63735">
        <ele>1539</ele>
        <time>2019-07-25T15:59:48Z</time>
      </trkpt>
      <trkpt lat="46.16414" lon="6.63638">
        <ele>1523</ele>
        <time>2019-07-25T16:01:06Z</time>
      </trkpt>
      <trkpt lat="46.16347" lon="6.63403">
        <ele>1508</ele>
        <time>2019-07-25T16:03:27Z</time>
      </trkpt>
      <trkpt lat="46.16125" lon="6.63521">
        <ele>1509</ele>
        <time>2019-07-25T16:06:37Z</time>
      </trkpt>
      <trkpt lat="46.16004" lon="6.635">
        <ele>1502</ele>
        <time>2019-07-25T16:08:14Z</time>
      </trkpt>
      <trkpt lat="46.15964" lon="6.63375">
        <ele>1491</ele>
        <time>2019-07-25T16:09:31Z</time>
      </trkpt>
      <trkpt lat="46.15879" lon="6.63082">
        <ele>1488</ele>
        <time>2019-07-25T16:12:27Z</time>
      </trkpt>
      <trkpt lat="46.15566" lon="6.63097">
        <ele>1509</ele>
        <time>2019-07-25T16:16:38Z</time>
      </trkpt>
      <trkpt lat="46.15264" lon="6.63113">
        <ele>1494</ele>
        <time>2019-07-25T16:20:40Z</time>
      </trkpt>
      <trkpt lat="46.15336" lon="6.63648">
        <ele>1473</ele>
        <time>2019-07-25T16:25:42Z</time>
      </trkpt>
      <trkpt lat="46.15513" lon="6.64184">
        <ele>1480</ele>
        <time>2019-07-25T16:31:11Z</time>
      </trkpt>
      <trkpt lat="46.15476" lon="6.64534">
        <ele>1402</ele>
        <time>2019-07-25T16:34:28Z</time>
      </trkpt>
      <trkpt lat="46.15762" lon="6.65019">
        <ele>1387</ele>
        <time>2019-07-25T16:40:21Z</time>
      </trkpt>
      <trkpt lat="46.15778" lon="6.65136">
        <ele>1373</ele>
        <time>2019-07-25T16:41:27Z</time>
      </trkpt>
      <trkpt lat="46.15845" lon="6.65214">
        <ele>1379</ele>
        <time>2019-07-25T16:42:36Z</time>
      </trkpt>
      <trkpt lat="46.15868" lon="6.65163">
        <ele>1395</ele>
        <time>2019-07-25T16:43:10Z</time>
      </trkpt>
      <trkpt lat="46.1585" lon="6.65335">
        <ele>1370</ele>
        <time>2019-07-25T16:44:46Z</time>
      </trkpt>
      <trkpt lat="46.15882" lon="6.65474">
        <ele>1377</ele>
        <time>2019-07-25T16:46:07Z</time>
      </trkpt>
      <trkpt lat="46.15823" lon="6.65503">
        <ele>1358</ele>
        <time>2019-07-25T16:46:57Z</time>
      </trkpt>
      <trkpt lat="46.15756" lon="6.65793">
        <ele>1329</ele>
        <time>2019-07-25T16:49:47Z</time>
      </trkpt>
      <trkpt lat="46.15941" lon="6.66021">
        <ele>1339</ele>
        <time>2019-07-25T16:53:02Z</time>
      </trkpt>
      <trkpt lat="46.16159" lon="6.66071">
        <ele>1375</ele>
        <time>2019-07-25T16:55:58Z</time>
      </trkpt>
      <trkpt lat="46.16217" lon="6.66194">
        <ele>1355</ele>
        <time>2019-07-25T16:57:21Z</time>
      </trkpt>
      <trkpt lat="46.16193" lon="6.66266">
        <ele>1337</ele>
        <time>2019-07-25T16:58:05Z</time>
      </trkpt>
      <trkpt lat="46.16204" lon="6.66362">
        <ele>1321</ele>
        <time>2019-07-25T16:58:59Z</time>
      </trkpt>
      <trkpt lat="46.16163" lon="6.66484">
        <ele>1279</ele>
        <time>2019-07-25T17:00:14Z</time>
      </trkpt>
      <trkpt lat="46.16066" lon="6.66634">
        <ele>1213</ele>
        <time>2019-07-25T17:02:08Z</time>
      </trkpt>
      <trkpt lat="46.16144" lon="6.66845">
        <ele>1198</ele>
        <time>2019-07-25T17:04:21Z</time>
      </trkpt>
      <trkpt lat="46.16083" lon="6.66975">
        <ele>1166</ele>
        <time>2019-07-25T17:05:48Z</time>
      </trkpt>
      <trkpt lat="46.16013" lon="6.67062">
        <ele>1165</ele>
        <time>2019-07-25T17:07:02Z</time>
      </trkpt>
      <trkpt lat="46.15705" lon="6.66668">
        <ele>1165</ele>
        <time>2019-07-25T17:12:31Z</time>
      </trkpt>
      <trkpt lat="46.15642" lon="6.6674">
        <ele>1171</ele>
        <time>2019-07-25T17:13:36Z</time>
      </trkpt>
      <trkpt lat="46.15851" lon="6.6695">
        <ele>1168</ele>
        <time>2019-07-25T17:17:00Z</time>
      </trkpt>
    </trkseg>
  </trk>
</gpx>